Aviation Digital Data Service (ADDS)

Output produced by METARs form (1942 UTC 23 November 2014)
found at http://www.aviationweather.gov/adds/metars/
 
KJST 231854Z AUTO 16014KT 10SM CLR 14/03 A3001 RMK AO2 SLP163 T01390033
KJST 231754Z AUTO 17011KT 10SM CLR 15/05 A3002 RMK AO2 SLP165 T01500050 10150 20078 58027
KJST 231654Z AUTO 18004KT 10SM CLR 13/03 A3004 RMK AO2 SLP176 T01330033
KJST 231554Z AUTO 21006KT 10SM CLR 12/02 A3009 RMK AO2 SLP191 T01220022
KJST 231454Z AUTO 20006KT 10SM OVC080 11/00 A3010 RMK AO2 SLP198 T01060000 58003
KJST 231354Z AUTO 18006KT 10SM CLR 09/M03 A3012 RMK AO2 SLP207 T00891028
KJST 231254Z AUTO 21005KT 10SM CLR 09/M03 A3011 RMK AO2 SLP203 T00891028
KJST 231154Z AUTO 23007KT 10SM OVC085 08/M03 A3011 RMK AO2 SLP205 T00831033 10089 20078 53003
KJST 231054Z AUTO 21007KT 10SM FEW040 BKN060 OVC075 09/M03 A3011 RMK AO2 SLP204 T00891033
KJST 230954Z AUTO 21008KT 10SM FEW046 BKN085 08/M04 A3010 RMK AO2 SLP201 T00831039
KJST 230854Z AUTO 22006KT 10SM BKN055 OVC075 08/M04 A3010 RMK AO2 SLP204 T00781039 58003
KJST 230754Z AUTO 22008KT 10SM BKN090 08/M05 A3010 RMK AO2 SLP204 T00781050
KJST 230654Z AUTO 22010KT 10SM OVC050 08/M04 A3011 RMK AO2 SLP208 T00831044
KJST 230554Z AUTO 21011KT 10SM BKN055 08/M03 A3011 RMK AO2 SLP208 T00831033 10089 20067 55006
KJST 230454Z AUTO 20010KT 10SM BKN095 09/M02 A3010 RMK AO2 SLP205 T00891022 400891083
KJST 230354Z AUTO 21007KT 10SM SCT060 OVC080 08/M02 A3012 RMK AO2 SLP213 T00831017
KJST 230254Z AUTO 21010KT 10SM BKN090 08/M01 A3013 RMK AO2 SLP215 T00831011 55005
KJST 230154Z AUTO 23008KT 10SM OVC090 08/M01 A3012 RMK AO2 SLP215 T00781006
KJST 230054Z AUTO 21009KT 10SM OVC060 08/M02 A3013 RMK AO2 SLP222 T00781017
KJST 222354Z AUTO 22009KT 10SM OVC050 07/M02 A3014 RMK AO2 SLP229 60000 T00721022 10072 20039 56007
KJST 222254Z AUTO 21010KT 10SM OVC050 07/M03 A3015 RMK AO2 SLP231 T00721028
KJST 222228Z AUTO 20009KT 10SM FEW029 OVC050 07/M03 A3015 RMK AO2 T00671028
KJST 222154Z AUTO 21010KT 10SM BKN027 OVC055 07/M03 A3016 RMK AO2 RAB05E19 SLP234 P0000 T00671033
KJST 222054Z AUTO 21010KT 10SM OVC024 06/M02 A3017 RMK AO2 RAB20E43 SLP240 P0000 60000 T00561022 55008
KJST 221954Z AUTO 21010KT 10SM OVC019 05/M03 A3017 RMK AO2 RAB1855E04 SLP240 P0000 T00501028
KJST 221854Z AUTO 22011G18KT 10SM OVC016 04/M05 A3018 RMK AO2 RAE16B36E50 SLP246 P0000 T00441050
KJST 221754Z AUTO 20011KT 10SM -RA OVC019 04/M08 A3019 RMK AO2 RAB12 SLP251 P0000 60000 T00391078 10039 21044 58024
KJST 221654Z AUTO 20008KT 10SM OVC023 03/M14 A3023 RMK AO2 RAB44E54 SLP264 P0000 T00331144
KJST 221554Z AUTO 21009KT 10SM OVC027 03/M17 A3026 RMK AO2 SLP277 T00281172
KJST 221536Z AUTO 20010KT 10SM OVC029 03/M17 A3026 RMK AO2 T00281172
KJST 221454Z AUTO 21011KT 10SM FEW033 OVC065 03/M17 A3027 RMK AO2 SLP280 T00281172 58006
KJST 221354Z AUTO 20012KT 10SM CLR 00/M19 A3028 RMK AO2 SLP287 T00001194
KJST 221254Z AUTO 20008KT 10SM CLR M03/M19 A3029 RMK AO2 SLP292 T10281194
KJST 221154Z AUTO 20009KT 10SM CLR M04/M18 A3029 RMK AO2 SLP293 T10441183 11039 21083 56013
KJST 221054Z AUTO 19008KT 10SM CLR M06/M17 A3031 RMK AO2 SLP300 T10561172
KJST 220954Z AUTO 20008KT 10SM CLR M06/M16 A3031 RMK AO2 SLP300 T10611161
KJST 220854Z AUTO 21007KT 10SM CLR M07/M15 A3033 RMK AO2 SLP308 T10671150 58004
KJST 220754Z AUTO 21009KT 10SM CLR M07/M14 A3035 RMK AO2 SLP316 T10671144